createdAt,value
2018-06-13T00:02:19.482Z,90.64
2018-06-13T00:04:51.667Z,91.17
2018-06-13T00:07:23.198Z,90.03
2018-06-13T00:09:55.067Z,89.74
2018-06-13T00:12:27.020Z,90.02
2018-06-13T00:14:59.063Z,91.22
2018-06-13T00:17:32.176Z,92.30
2018-06-13T00:20:05.264Z,93.91
2018-06-13T00:22:36.648Z,94.77
2018-06-13T00:25:08.670Z,95.21
2018-06-13T00:27:40.625Z,96.31
2018-06-13T00:30:12.647Z,97.04
2018-06-13T00:32:44.596Z,96.45
2018-06-13T00:35:21.248Z,96.49
2018-06-13T00:37:53.001Z,96.99
2018-06-13T00:40:24.792Z,98.57
2018-06-13T00:42:56.667Z,98.27
2018-06-13T00:45:28.743Z,98.23
2018-06-13T00:48:01.136Z,98.49
2018-06-13T00:50:33.176Z,98.12
2018-06-13T00:53:05.383Z,97.48
2018-06-13T00:55:47.381Z,98.53
2018-06-13T00:58:19.247Z,98.10
2018-06-13T01:00:51.240Z,97.62
2018-06-13T01:03:23.223Z,97.38
2018-06-13T01:05:55.024Z,97.25
2018-06-13T01:08:27.119Z,97.21
2018-06-13T01:10:59.012Z,97.04
2018-06-13T01:13:31.089Z,97.60
2018-06-13T01:16:03.302Z,95.51
2018-06-13T01:18:34.700Z,94.77
2018-06-13T01:21:06.154Z,95.24
2018-06-13T01:23:37.904Z,95.24
2018-06-13T01:26:09.161Z,95.12
2018-06-13T01:28:40.871Z,94.24
2018-06-13T01:31:13.780Z,92.76
2018-06-13T01:33:45.657Z,93.39
2018-06-13T01:36:17.606Z,95.03
2018-06-13T01:38:49.547Z,94.67
2018-06-13T01:45:02.236Z,94.11
2018-06-13T01:47:34.243Z,94.71
2018-06-13T01:50:06.211Z,95.44
2018-06-13T01:52:38.370Z,95.38
2018-06-13T01:55:11.218Z,95.29
2018-06-13T01:57:43.252Z,95.98
2018-06-13T02:00:20.538Z,97.53
2018-06-13T02:02:52.552Z,96.75
2018-06-13T02:05:24.537Z,97.83
2018-06-13T02:07:56.558Z,97.68
2018-06-13T02:10:28.482Z,96.94
2018-06-13T02:13:00.967Z,98.83
2018-06-13T02:15:32.788Z,98.90
2018-06-13T02:18:04.373Z,98.93
2018-06-13T02:20:37.152Z,99.44
2018-06-13T02:23:08.761Z,100.00
2018-06-13T02:25:40.757Z,99.98
2018-06-13T02:28:12.654Z,99.91
2018-06-13T02:30:44.193Z,100.00
2018-06-13T02:33:16.035Z,99.43
2018-06-13T02:35:48.142Z,99.28
2018-06-13T02:38:20.372Z,99.73
2018-06-13T02:40:52.875Z,99.56
2018-06-13T02:43:24.916Z,98.69
2018-06-13T02:45:56.861Z,98.97
2018-06-13T02:48:28.972Z,100.00
2018-06-13T02:51:01.196Z,100.00
2018-06-13T02:53:34.160Z,98.91
2018-06-13T02:56:06.404Z,98.37
2018-06-13T02:58:39.085Z,99.36
2018-06-13T03:01:11.111Z,99.98
2018-06-13T03:03:44.112Z,99.97
2018-06-13T03:06:15.452Z,100.00
2018-06-13T03:08:47.199Z,99.61
2018-06-13T03:11:19.124Z,100.00
2018-06-13T03:13:50.518Z,99.52
2018-06-13T03:16:22.373Z,99.89
2018-06-13T03:18:54.241Z,99.62
2018-06-13T03:21:26.143Z,100.00
2018-06-13T03:23:57.790Z,100.00
2018-06-13T03:26:29.629Z,99.03
2018-06-13T03:29:01.780Z,98.69
2018-06-13T03:31:33.930Z,99.59
2018-06-13T03:34:06.653Z,98.89
2018-06-13T03:36:38.643Z,99.47
2018-06-13T03:39:11.063Z,98.46
2018-06-13T03:41:43.577Z,97.26
2018-06-13T03:44:15.506Z,97.35
2018-06-13T03:46:47.624Z,96.15
2018-06-13T03:49:19.147Z,94.65
2018-06-13T03:51:50.992Z,94.91
2018-06-13T03:54:23.011Z,97.28
2018-06-13T03:56:55.172Z,96.15
2018-06-13T03:59:26.991Z,95.85
2018-06-13T04:01:58.915Z,95.71
2018-06-13T04:04:31.022Z,94.36
2018-06-13T04:07:03.409Z,96.46
2018-06-13T04:09:35.365Z,99.23
2018-06-13T04:12:07.429Z,97.35
2018-06-13T04:14:39.404Z,97.69
2018-06-13T04:17:11.373Z,97.31
2018-06-13T04:19:43.351Z,98.03
2018-06-13T04:22:15.280Z,93.64
2018-06-13T04:24:47.225Z,93.18
2018-06-13T04:27:19.300Z,94.88
2018-06-13T04:29:51.366Z,95.45
2018-06-13T04:32:23.488Z,97.00
2018-06-13T04:34:55.319Z,98.42
2018-06-13T04:37:27.560Z,98.28
2018-06-13T04:39:59.500Z,96.77
2018-06-13T04:42:31.954Z,96.38
2018-06-13T04:45:03.833Z,96.13
2018-06-13T04:47:35.591Z,94.10
2018-06-13T04:50:07.033Z,95.77
2018-06-13T04:52:39.194Z,88.94
2018-06-13T04:55:11.503Z,89.27
2018-06-13T04:57:44.617Z,89.51
2018-06-13T05:00:18.709Z,90.40
2018-06-13T05:02:52.833Z,89.83
2018-06-13T05:05:25.268Z,89.34
2018-06-13T05:07:58.204Z,91.01
2018-06-13T05:10:30.271Z,91.00
2018-06-13T05:13:03.047Z,91.86
2018-06-13T05:15:35.425Z,93.21
2018-06-13T05:18:09.339Z,93.45
2018-06-13T05:20:41.713Z,94.05
2018-06-13T05:23:13.684Z,94.61
2018-06-13T05:25:46.518Z,95.23
2018-06-13T05:28:19.494Z,95.54
2018-06-13T05:30:51.381Z,96.60
2018-06-13T05:33:22.590Z,97.12
2018-06-13T05:35:54.311Z,95.69
2018-06-13T05:38:26.592Z,97.20
2018-06-13T05:40:58.345Z,95.91
2018-06-13T05:43:30.783Z,93.64
2018-06-13T05:46:03.102Z,93.23
2018-06-13T05:48:36.079Z,92.26
2018-06-13T05:51:08.148Z,96.64
2018-06-13T05:53:40.132Z,94.49
2018-06-13T05:56:12.103Z,96.53
2018-06-13T05:58:43.657Z,97.02
2018-06-13T06:01:15.616Z,98.17
2018-06-13T06:03:47.399Z,98.20
2018-06-13T06:06:18.629Z,99.93
2018-06-13T06:08:53.795Z,99.52
2018-06-13T06:11:25.915Z,99.43
2018-06-13T06:13:58.732Z,100.00
2018-06-13T06:16:33.015Z,100.00
2018-06-13T06:19:05.341Z,100.00
2018-06-13T06:21:37.723Z,100.00
2018-06-13T06:24:09.776Z,100.00
2018-06-13T06:26:50.311Z,100.00
2018-06-13T06:29:23.112Z,100.00
2018-06-13T06:31:56.511Z,100.00
2018-06-13T06:34:32.340Z,100.00
2018-06-13T06:37:08.694Z,100.00
2018-06-13T06:39:41.164Z,100.00
2018-06-13T06:42:14.475Z,100.00
2018-06-13T06:44:48.907Z,100.00
2018-06-13T06:47:20.315Z,100.00
2018-06-13T06:49:52.143Z,100.00
2018-06-13T06:52:24.171Z,100.00
2018-06-13T06:54:55.684Z,100.00
2018-06-13T06:57:27.499Z,100.00
2018-06-13T06:59:59.687Z,100.00
2018-06-13T07:02:31.220Z,100.00
2018-06-13T07:05:04.833Z,99.76
2018-06-13T07:07:36.799Z,100.00
2018-06-13T07:10:10.469Z,99.44
2018-06-13T07:12:42.435Z,99.80
2018-06-13T07:15:16.287Z,99.58
2018-06-13T07:17:48.568Z,100.00
2018-06-13T07:20:20.913Z,100.00
2018-06-13T07:22:53.116Z,100.00
2018-06-13T07:25:25.487Z,100.00
2018-06-13T07:27:57.923Z,100.00
2018-06-13T07:30:29.625Z,100.00
2018-06-13T07:33:01.982Z,100.00
2018-06-13T07:35:34.616Z,100.00
2018-06-13T07:38:06.114Z,100.00
2018-06-13T07:40:38.068Z,100.00
2018-06-13T07:43:10.091Z,100.00
2018-06-13T07:45:42.171Z,100.00
2018-06-13T07:48:14.211Z,100.00
2018-06-13T07:50:46.189Z,100.00
2018-06-13T07:53:17.463Z,100.00
2018-06-13T07:55:49.234Z,100.00
2018-06-13T07:58:21.245Z,100.00
2018-06-13T08:00:53.470Z,100.00
2018-06-13T08:03:25.740Z,100.00
2018-06-13T08:05:58.579Z,100.00
2018-06-13T08:08:31.550Z,98.72
2018-06-13T08:11:04.565Z,99.85
2018-06-13T08:13:36.432Z,99.81
2018-06-13T08:16:08.414Z,99.53
2018-06-13T08:18:39.997Z,99.32
2018-06-13T08:21:11.301Z,100.00
2018-06-13T08:23:43.172Z,95.31
2018-06-13T08:26:15.282Z,96.62
2018-06-13T08:28:47.469Z,95.19
2018-06-13T08:31:19.463Z,96.41
2018-06-13T08:33:51.615Z,96.28
2018-06-13T08:36:23.900Z,98.66
2018-06-13T08:38:55.792Z,97.98
2018-06-13T08:41:28.031Z,96.60
2018-06-13T08:43:59.471Z,94.75
2018-06-13T08:46:31.500Z,95.35
2018-06-13T08:49:03.795Z,94.59
2018-06-13T08:51:35.839Z,97.86
2018-06-13T08:54:07.709Z,98.84
2018-06-13T08:56:39.942Z,100.00
2018-06-13T08:59:11.984Z,100.00
2018-06-13T09:01:44.085Z,95.65
2018-06-13T09:04:16.983Z,98.67
2018-06-13T09:06:48.953Z,98.95
2018-06-13T09:09:21.090Z,95.65
2018-06-13T09:11:52.969Z,93.27
2018-06-13T09:14:25.043Z,92.75
2018-06-13T09:16:56.930Z,90.71
2018-06-13T09:19:29.269Z,90.65
2018-06-13T09:22:01.492Z,88.35
2018-06-13T09:24:33.317Z,90.98
2018-06-13T09:27:05.798Z,90.73
2018-06-13T09:29:40.301Z,88.64
2018-06-13T09:32:12.588Z,89.17
2018-06-13T09:34:45.003Z,88.32
2018-06-13T09:37:16.943Z,86.54
2018-06-13T09:39:49.273Z,85.37
2018-06-13T09:42:21.101Z,84.72
2018-06-13T09:44:53.665Z,85.56
2018-06-13T09:47:25.785Z,88.44
2018-06-13T09:49:57.664Z,87.85
2018-06-13T09:52:30.013Z,85.89
2018-06-13T09:55:01.995Z,82.39
2018-06-13T09:57:35.069Z,79.78
2018-06-13T10:00:11.876Z,83.01
2018-06-13T10:02:46.028Z,84.48
2018-06-13T10:05:22.006Z,82.47
2018-06-13T10:07:53.960Z,83.49
2018-06-13T10:10:25.666Z,82.92
2018-06-13T10:12:57.500Z,87.40
2018-06-13T10:15:30.069Z,84.91
2018-06-13T10:18:02.332Z,86.79
2018-06-13T10:20:36.518Z,83.79
2018-06-13T10:23:13.269Z,86.01
2018-06-13T10:26:01.286Z,86.21
2018-06-13T10:28:36.679Z,88.35
2018-06-13T10:31:08.773Z,89.57
2018-06-13T10:33:44.100Z,92.53
2018-06-13T10:36:16.338Z,95.26
2018-06-13T10:38:50.100Z,94.24
2018-06-13T10:41:26.368Z,94.20
2018-06-13T10:49:45.494Z,89.29
2018-06-13T10:52:41.284Z,88.27
2018-06-13T10:55:40.125Z,85.19
2018-06-13T10:58:20.495Z,86.92
2018-06-13T11:04:30.971Z,84.21
2018-06-13T11:07:07.613Z,84.88
2018-06-13T11:10:01.850Z,82.93
2018-06-13T11:12:37.166Z,80.84
2018-06-13T11:15:13.685Z,78.89
2018-06-13T11:18:17.007Z,77.29
2018-06-13T11:21:15.410Z,79.65
2018-06-13T11:24:20.785Z,79.69
2018-06-13T11:27:02.218Z,79.69
2018-06-13T11:29:34.820Z,80.74
2018-06-13T11:32:09.966Z,81.45
2018-06-13T11:34:43.991Z,79.49
2018-06-13T11:37:22.814Z,80.25
2018-06-13T11:39:57.133Z,83.89
2018-06-13T11:42:28.994Z,81.91
2018-06-13T11:45:06.699Z,83.07
2018-06-13T11:47:43.124Z,83.73
2018-06-13T11:50:29.732Z,85.11
2018-06-13T11:53:01.784Z,83.01
2018-06-13T11:55:33.902Z,83.09
2018-06-13T11:58:06.096Z,85.31
2018-06-13T12:00:37.800Z,86.40
2018-06-13T12:03:09.501Z,86.46
2018-06-13T12:05:41.381Z,87.19
2018-06-13T12:08:13.287Z,86.91
2018-06-13T12:10:45.116Z,85.20
2018-06-13T12:13:16.418Z,86.39
2018-06-13T12:15:48.269Z,85.60
2018-06-13T12:18:20.174Z,84.24
2018-06-13T12:20:54.801Z,82.26
2018-06-13T12:23:29.923Z,81.09
2018-06-13T12:26:02.355Z,80.55
2018-06-13T12:28:34.493Z,78.56
2018-06-13T12:31:06.331Z,78.69
2018-06-13T12:33:45.110Z,79.92
2018-06-13T12:36:54.523Z,78.00
2018-06-13T12:39:35.145Z,79.40
2018-06-13T12:42:25.152Z,77.15
2018-06-13T12:45:19.783Z,76.47
2018-06-13T12:48:02.028Z,78.51
2018-06-13T12:50:47.159Z,78.54
2018-06-13T12:53:25.929Z,77.64
2018-06-13T12:56:16.653Z,76.35
2018-06-13T13:01:41.516Z,75.20
2018-06-13T13:04:20.397Z,75.29
2018-06-13T13:07:02.821Z,75.49
2018-06-13T13:09:41.621Z,75.74
2018-06-13T13:12:26.159Z,76.08
2018-06-13T13:15:06.237Z,75.44
2018-06-13T13:17:41.176Z,75.85
2018-06-13T13:20:22.774Z,78.58
2018-06-13T13:23:01.369Z,78.10
2018-06-13T13:25:35.501Z,79.42
2018-06-13T13:28:10.251Z,79.03
2018-06-13T13:30:43.183Z,76.07
2018-06-13T13:33:21.327Z,71.56
2018-06-13T13:35:56.520Z,72.56
2018-06-13T13:38:33.283Z,72.60
2018-06-13T13:41:06.377Z,71.33
2018-06-13T13:43:38.551Z,73.63
2018-06-13T13:46:17.873Z,70.76
2018-06-13T13:48:51.292Z,73.37
2018-06-13T13:51:47.378Z,71.86
2018-06-13T13:54:25.079Z,71.78
2018-06-13T13:57:16.259Z,71.67
2018-06-13T13:59:56.924Z,66.90
2018-06-13T14:02:32.228Z,69.56
2018-06-13T14:05:08.868Z,65.88
2018-06-13T14:07:44.452Z,63.74
2018-06-13T14:10:28.348Z,60.59
2018-06-13T14:13:02.021Z,60.08
2018-06-13T14:15:34.068Z,60.96
2018-06-13T14:18:06.367Z,63.02
2018-06-13T14:20:39.625Z,63.53
2018-06-13T14:23:12.645Z,63.77
2018-06-13T14:25:44.225Z,64.18
2018-06-13T14:28:15.908Z,64.46
2018-06-13T14:30:47.829Z,62.49
2018-06-13T14:33:19.920Z,59.57
2018-06-13T14:35:51.437Z,60.80
2018-06-13T14:38:23.143Z,61.40
2018-06-13T14:43:26.023Z,62.92
2018-06-13T14:45:57.891Z,64.56
2018-06-13T14:48:29.529Z,65.79
2018-06-13T14:51:01.382Z,66.35
2018-06-13T14:53:33.386Z,68.10
2018-06-13T14:56:09.677Z,69.08
2018-06-13T14:58:41.395Z,70.17
2018-06-13T15:01:13.250Z,72.15
2018-06-13T15:03:44.986Z,75.61
2018-06-13T15:06:17.139Z,76.08
2018-06-13T15:08:49.015Z,76.14
2018-06-13T15:11:20.838Z,76.99
2018-06-13T15:13:52.148Z,78.72
2018-06-13T15:16:24.390Z,75.55
2018-06-13T15:18:56.888Z,75.45
2018-06-13T15:21:28.770Z,74.87
2018-06-13T15:24:00.802Z,75.42
2018-06-13T15:26:32.576Z,75.16
2018-06-13T15:29:04.560Z,74.98
2018-06-13T15:31:36.395Z,73.46
2018-06-13T15:34:08.092Z,72.86
2018-06-13T15:36:40.455Z,74.06
2018-06-13T15:39:16.250Z,73.34
2018-06-13T15:41:48.251Z,72.76
2018-06-13T15:44:20.174Z,75.01
2018-06-13T15:46:52.231Z,74.93
2018-06-13T15:49:24.399Z,77.09
2018-06-13T15:51:56.123Z,77.83
2018-06-13T15:54:28.053Z,78.04
2018-06-13T15:57:00.083Z,80.15
2018-06-13T15:59:32.038Z,82.85
2018-06-13T16:02:04.375Z,86.09
2018-06-13T16:04:36.435Z,86.68
2018-06-13T16:07:08.772Z,85.89
2018-06-13T16:09:40.856Z,87.26
2018-06-13T16:12:13.029Z,86.27
2018-06-13T16:14:50.680Z,89.20
2018-06-13T16:17:24.082Z,91.17
2018-06-13T16:19:56.072Z,89.91
2018-06-13T16:22:29.444Z,91.06
2018-06-13T16:25:01.538Z,91.37
2018-06-13T16:27:33.740Z,91.46
2018-06-13T16:30:06.036Z,89.85
2018-06-13T16:32:38.041Z,90.29
2018-06-13T16:35:10.817Z,92.04
2018-06-13T16:37:43.411Z,89.26
2018-06-13T16:40:18.621Z,92.23
2018-06-13T16:42:50.937Z,91.07
2018-06-13T16:45:24.863Z,89.56
2018-06-13T16:47:57.387Z,92.26
2018-06-13T16:50:45.427Z,92.43
2018-06-13T16:54:35.979Z,91.86
2018-06-13T16:57:10.022Z,93.04
2018-06-13T16:59:42.234Z,93.89
2018-06-13T17:02:14.320Z,97.61
2018-06-13T17:04:46.049Z,95.86
2018-06-13T17:07:19.699Z,97.03
2018-06-13T17:09:51.757Z,96.68
2018-06-13T17:12:24.376Z,94.37
2018-06-13T17:14:56.736Z,92.24
2018-06-13T17:17:28.817Z,96.78
2018-06-13T17:20:02.304Z,98.11
2018-06-13T17:22:34.721Z,99.00
2018-06-13T17:25:06.914Z,99.02
2018-06-13T17:27:38.392Z,98.74
2018-06-13T17:30:09.723Z,98.55
2018-06-13T17:32:41.780Z,100.00
2018-06-13T17:35:13.947Z,100.00
2018-06-13T17:37:47.060Z,100.00
2018-06-13T17:40:20.966Z,100.00
2018-06-13T17:42:56.946Z,100.00
2018-06-13T17:45:30.385Z,100.00
2018-06-13T17:48:06.011Z,100.00
2018-06-13T17:50:45.887Z,100.00
2018-06-13T17:53:20.827Z,100.00
2018-06-13T17:55:58.110Z,100.00
2018-06-13T17:58:34.669Z,99.83
2018-06-13T18:01:14.140Z,100.00
2018-06-13T18:03:49.154Z,100.00
2018-06-13T18:06:21.651Z,99.30
2018-06-13T18:08:53.090Z,98.39
2018-06-13T18:11:25.471Z,99.57
2018-06-13T18:13:57.432Z,100.00
2018-06-13T18:16:29.167Z,99.29
2018-06-13T18:19:01.099Z,99.66
2018-06-13T18:21:33.644Z,98.64
2018-06-13T18:24:05.853Z,98.89
2018-06-13T18:26:38.191Z,100.00
2018-06-13T18:29:10.173Z,99.25
2018-06-13T18:31:43.102Z,99.98
2018-06-13T18:34:15.400Z,98.74
2018-06-13T18:36:47.438Z,99.65
2018-06-13T18:39:20.946Z,99.71
2018-06-13T18:41:53.824Z,99.61
2018-06-13T18:44:26.830Z,99.58
2018-06-13T18:46:59.026Z,94.55
2018-06-13T18:49:30.553Z,92.43
2018-06-13T18:52:03.613Z,91.34
2018-06-13T18:54:36.247Z,88.06
2018-06-13T18:57:12.880Z,90.85
2018-06-13T18:59:44.883Z,87.03
2018-06-13T19:02:16.445Z,84.85
2018-06-13T19:04:48.263Z,87.42
2018-06-13T19:07:20.115Z,86.50
2018-06-13T19:09:52.138Z,86.59
2018-06-13T19:12:25.150Z,87.28
2018-06-13T19:14:57.441Z,86.70
2018-06-13T19:17:29.726Z,86.91
2018-06-13T19:20:01.332Z,89.10
2018-06-13T19:22:33.387Z,92.84
2018-06-13T19:25:06.331Z,93.46
2018-06-13T19:27:39.414Z,93.11
2018-06-13T19:30:11.461Z,98.52
2018-06-13T19:32:43.894Z,99.09
2018-06-13T19:35:16.288Z,99.30
2018-06-13T19:37:48.337Z,94.64
2018-06-13T19:40:20.358Z,93.69
2018-06-13T19:42:52.192Z,94.44
2018-06-13T19:45:24.538Z,97.28
2018-06-13T19:48:01.268Z,98.87
2018-06-13T19:50:33.069Z,100.00
2018-06-13T19:53:09.975Z,100.00
2018-06-13T19:55:46.454Z,100.00
2018-06-13T19:58:18.402Z,100.00
2018-06-13T20:00:50.200Z,100.00
2018-06-13T20:03:27.503Z,100.00
2018-06-13T20:05:59.412Z,100.00
2018-06-13T20:08:31.399Z,100.00
2018-06-13T20:11:03.329Z,100.00
2018-06-13T20:13:39.956Z,100.00
2018-06-13T20:16:16.758Z,100.00
2018-06-13T20:18:53.423Z,100.00
2018-06-13T20:21:25.614Z,100.00
2018-06-13T20:23:57.612Z,100.00
2018-06-13T20:26:34.302Z,100.00
2018-06-13T20:29:11.043Z,100.00
2018-06-13T20:31:44.805Z,100.00
2018-06-13T20:34:16.634Z,100.00
2018-06-13T20:36:48.480Z,100.00
2018-06-13T20:39:20.320Z,100.00
2018-06-13T20:41:51.760Z,100.00
2018-06-13T20:44:23.757Z,100.00
2018-06-13T20:46:56.230Z,100.00
2018-06-13T20:49:28.156Z,100.00
2018-06-13T20:51:59.809Z,100.00
2018-06-13T20:54:31.602Z,100.00
2018-06-13T20:57:03.569Z,100.00
2018-06-13T20:59:35.248Z,100.00
2018-06-13T21:02:07.505Z,100.00
2018-06-13T21:04:39.822Z,100.00
2018-06-13T21:07:17.332Z,100.00
2018-06-13T21:09:49.839Z,100.00
2018-06-13T21:12:22.362Z,100.00
2018-06-13T21:14:54.756Z,100.00
2018-06-13T21:17:27.054Z,100.00
2018-06-13T21:19:59.095Z,100.00
2018-06-13T21:22:31.270Z,100.00
2018-06-13T21:25:03.411Z,100.00
2018-06-13T21:27:35.414Z,100.00
2018-06-13T21:30:07.864Z,100.00
2018-06-13T21:32:40.167Z,100.00
2018-06-13T21:35:12.486Z,100.00
2018-06-13T21:37:44.408Z,100.00
2018-06-13T21:40:16.258Z,100.00
2018-06-13T21:42:47.622Z,100.00
2018-06-13T21:45:19.579Z,100.00
2018-06-13T21:47:51.772Z,100.00
2018-06-13T21:50:24.169Z,100.00
2018-06-13T21:52:56.235Z,100.00
2018-06-13T21:55:29.504Z,100.00
2018-06-13T21:58:01.852Z,100.00
2018-06-13T22:00:33.533Z,100.00
2018-06-13T22:03:05.496Z,100.00
2018-06-13T22:05:37.377Z,100.00
2018-06-13T22:08:09.089Z,100.00
2018-06-13T22:10:43.924Z,100.00
2018-06-13T22:13:16.385Z,100.00
2018-06-13T22:15:48.316Z,100.00
2018-06-13T22:18:20.461Z,100.00
2018-06-13T22:20:52.650Z,100.00
2018-06-13T22:23:25.421Z,100.00
2018-06-13T22:25:57.473Z,100.00
2018-06-13T22:28:29.736Z,100.00
2018-06-13T22:31:02.902Z,100.00
2018-06-13T22:33:36.497Z,100.00
2018-06-13T22:36:08.680Z,100.00
2018-06-13T22:38:41.067Z,100.00
2018-06-13T22:41:13.357Z,100.00
2018-06-13T22:43:47.326Z,100.00
2018-06-13T22:46:19.884Z,100.00
2018-06-13T22:48:52.823Z,100.00
2018-06-13T22:51:24.896Z,100.00
2018-06-13T22:53:57.062Z,100.00
2018-06-13T22:56:29.235Z,100.00
2018-06-13T22:59:02.446Z,100.00
2018-06-13T23:01:35.140Z,100.00
2018-06-13T23:04:53.484Z,100.00
2018-06-13T23:07:30.007Z,100.00
2018-06-13T23:10:02.280Z,100.00
2018-06-13T23:12:34.212Z,100.00
2018-06-13T23:15:06.540Z,100.00
2018-06-13T23:17:38.824Z,100.00
2018-06-13T23:20:10.768Z,100.00
2018-06-13T23:22:42.959Z,100.00
2018-06-13T23:25:14.802Z,100.00
2018-06-13T23:27:47.001Z,100.00
2018-06-13T23:30:19.333Z,100.00
2018-06-13T23:32:51.410Z,100.00
2018-06-13T23:35:23.639Z,100.00
2018-06-13T23:37:55.735Z,100.00
2018-06-13T23:40:28.140Z,100.00
2018-06-13T23:43:00.030Z,100.00
2018-06-13T23:45:32.414Z,100.00
2018-06-13T23:48:04.682Z,100.00
2018-06-13T23:50:36.052Z,100.00
2018-06-13T23:53:07.604Z,100.00
2018-06-13T23:55:39.449Z,100.00
2018-06-13T23:58:11.529Z,100.00
